Time;durP1;ratioP1;P1;durP2;ratioP2;P2;SDS_P1;SDS_P2;PMS_P1;PMS_P2;Temp;Humidity;BMP_temperature;BMP_pressure;BME280_temperature;BME280_humidity;BME280_pressure;Samples;Min_cycle;Max_cycle;Signal;HPM_P1;HPM_P2
2022/01/24 00:00:24;;;;;;;9.10;8.13;;;;;;;1.75;94.42;100345.03;5006000;28;103257;-66
2022/01/24 00:02:52;;;;;;;7.43;6.07;;;;;;;1.89;93.72;100340.53;5006227;28;103178;-66
2022/01/24 00:05:20;;;;;;;7.50;6.20;;;;;;;1.90;91.76;100333.56;5006596;28;102669;-69
2022/01/24 00:07:48;;;;;;;8.80;7.40;;;;;;;1.58;90.44;100336.53;5001741;28;103516;-69
2022/01/24 00:10:21;;;;;;;9.13;7.47;;;;;;;1.35;92.40;100339.34;4985511;28;104118;-69
2022/01/24 00:13:02;;;;;;;10.10;7.33;;;;;;;1.38;92.94;100335.84;5004214;28;103173;-69
2022/01/24 00:15:51;;;;;;;8.20;6.33;;;;;;;1.52;93.26;100319.22;4985047;28;102626;-69
2022/01/24 00:18:29;;;;;;;9.43;7.27;;;;;;;1.70;92.50;100326.84;5005834;28;103788;-66
2022/01/24 00:26:45;;;;;;;9.70;6.93;;;;;;;1.08;93.39;100329.19;5005306;28;102633;-66
2022/01/24 00:29:14;;;;;;;8.03;5.90;;;;;;;1.25;95.32;100329.91;4985201;28;102697;-69
2022/01/24 00:31:43;;;;;;;6.23;5.40;;;;;;;1.49;93.68;100327.06;5003429;28;103241;-69
2022/01/24 00:34:11;;;;;;;10.90;7.50;;;;;;;1.53;91.57;100323.56;5001241;28;103283;-69
2022/01/24 00:36:40;;;;;;;9.17;6.63;;;;;;;1.50;90.86;100322.72;5000874;28;102668;-69
2022/01/24 00:39:09;;;;;;;8.80;7.63;;;;;;;1.47;90.58;100320.16;4987063;28;104253;-69
2022/01/24 00:41:46;;;;;;;11.33;7.07;;;;;;;1.28;90.84;100318.59;4995619;28;104342;-69
2022/01/24 00:47:11;;;;;;;8.17;7.37;;;;;;;0.49;97.46;100321.84;4989677;28;102865;-65
2022/01/24 00:49:50;;;;;;;10.30;7.97;;;;;;;0.55;97.73;100314.88;4990446;28;102795;-69
2022/01/24 00:55:06;;;;;;;11.90;7.47;;;;;;;0.33;99.17;100310.66;5015098;27;104336;-65
2022/01/24 00:57:36;;;;;;;9.93;8.27;;;;;;;0.40;99.08;100304.53;4994029;28;103138;-65
2022/01/24 01:00:05;;;;;;;9.47;8.33;;;;;;;0.42;99.00;100310.59;4983310;28;103733;-65
2022/01/24 01:02:33;;;;;;;9.53;8.53;;;;;;;0.53;98.97;100307.94;5007817;28;104214;-66
2022/01/24 01:05:19;;;;;;;9.73;7.93;;;;;;;0.48;98.14;100313.16;5007756;28;103176;-65
2022/01/24 01:07:57;;;;;;;10.27;8.30;;;;;;;0.33;99.30;100323.66;5006131;28;102580;-70
2022/01/24 01:18:44;;;;;;;10.57;7.63;;;;;;;0.69;97.62;100332.97;4994645;28;102789;-69
2022/01/24 01:21:14;;;;;;;9.03;8.00;;;;;;;0.62;97.04;100333.03;4981370;28;102638;-69
2022/01/24 01:23:47;;;;;;;10.40;8.10;;;;;;;0.56;97.99;100333.94;5005252;28;103726;-65
2022/01/24 01:26:24;;;;;;;8.43;7.43;;;;;;;0.79;97.30;100338.97;5009748;28;103344;-66
2022/01/24 01:28:58;;;;;;;8.90;7.17;;;;;;;0.96;96.04;100334.50;5010323;28;103549;-69
2022/01/24 01:31:37;;;;;;;10.07;7.30;;;;;;;0.93;94.87;100340.59;5007018;28;102874;-69
2022/01/24 01:34:16;;;;;;;8.67;7.53;;;;;;;0.82;95.77;100341.53;5003806;28;103292;-67
2022/01/24 01:37:14;;;;;;;9.03;7.83;;;;;;;0.49;96.87;100330.50;5003767;28;103226;-65
2022/01/24 01:54:07;;;;;;;10.00;7.73;;;;;;;0.25;99.62;100333.25;4985030;28;103509;-69
2022/01/24 01:56:35;;;;;;;9.77;8.20;;;;;;;0.38;99.35;100334.03;5002904;28;103012;-69
2022/01/24 01:59:03;;;;;;;9.40;8.00;;;;;;;0.35;99.34;100329.72;5009167;28;103200;-65
2022/01/24 02:01:32;;;;;;;10.50;8.47;;;;;;;0.33;98.92;100335.81;5010051;27;102728;-65
2022/01/24 02:04:03;;;;;;;8.97;7.77;;;;;;;0.24;99.80;100328.91;5002805;28;103426;-69
2022/01/24 02:06:31;;;;;;;10.50;8.13;;;;;;;0.36;99.07;100335.78;5006211;28;103253;-68
2022/01/24 02:09:00;;;;;;;8.33;7.30;;;;;;;0.49;98.04;100332.22;5005862;28;103182;-69
2022/01/24 02:11:28;;;;;;;8.17;7.37;;;;;;;0.41;97.98;100324.50;4994645;28;102622;-68
2022/01/24 02:13:59;;;;;;;8.90;7.63;;;;;;;0.20;98.45;100334.13;5001363;28;102722;-69
2022/01/24 02:16:35;;;;;;;10.30;7.80;;;;;;;-0.02;99.74;100334.22;4986358;28;104201;-68
2022/01/24 02:19:12;;;;;;;7.97;7.17;;;;;;;0.06;100.00;100331.59;4999511;28;102963;-65
2022/01/24 02:21:46;;;;;;;9.27;8.27;;;;;;;0.07;100.00;100327.25;4986089;28;102688;-66
2022/01/24 02:24:17;;;;;;;9.17;8.07;;;;;;;0.18;100.00;100323.75;5000575;28;102617;-66
2022/01/24 02:26:48;;;;;;;10.23;8.67;;;;;;;0.23;99.78;100314.19;5010755;28;103727;-65
2022/01/24 02:29:27;;;;;;;9.30;7.60;;;;;;;0.37;98.98;100312.38;5000376;28;103195;-68
2022/01/24 02:31:56;;;;;;;9.10;7.87;;;;;;;0.42;98.13;100310.59;4999445;28;102631;-68
2022/01/24 02:34:30;;;;;;;8.80;7.73;;;;;;;0.47;97.71;100314.06;5002912;28;102850;-65
2022/01/24 02:37:02;;;;;;;8.63;7.50;;;;;;;0.38;97.08;100308.91;4991382;28;103788;-69
2022/01/24 02:39:45;;;;;;;9.60;8.07;;;;;;;0.31;98.34;100309.78;5003624;28;103309;-69
2022/01/24 02:53:32;;;;;;;6.57;5.50;;;;;;;0.64;96.50;100308.72;5112273;27;102858;-68
2022/01/24 02:56:00;;;;;;;7.67;6.17;;;;;;;0.70;95.78;100307.81;5063190;27;103911;-70
2022/01/24 02:58:29;;;;;;;6.23;5.60;;;;;;;0.65;94.59;100301.81;5089005;27;103282;-70
2022/01/24 03:00:57;;;;;;;7.40;6.70;;;;;;;0.67;94.68;100305.25;5054001;27;103946;-70
2022/01/24 03:03:26;;;;;;;8.60;7.70;;;;;;;0.51;93.24;100300.13;5085140;27;102732;-71
2022/01/24 03:05:57;;;;;;;8.63;7.20;;;;;;;0.14;94.96;100298.63;5079271;27;102651;-71
2022/01/24 03:08:25;;;;;;;9.37;7.87;;;;;;;0.23;95.75;100292.50;5064470;27;104264;-70
2022/01/24 03:10:55;;;;;;;8.60;7.70;;;;;;;0.11;95.24;100293.47;5066952;27;104117;-70
2022/01/24 03:13:33;;;;;;;7.70;6.57;;;;;;;0.18;96.12;100283.88;5082441;27;102614;-70
2022/01/24 03:16:06;;;;;;;7.60;6.10;;;;;;;0.36;96.18;100284.66;5060254;27;103648;-70
2022/01/24 03:18:35;;;;;;;7.57;5.80;;;;;;;0.43;95.14;100286.31;5081759;27;103320;-70
2022/01/24 03:21:03;;;;;;;6.20;5.30;;;;;;;0.50;94.68;100285.44;5062617;27;104200;-70
2022/01/24 03:23:31;;;;;;;8.43;7.10;;;;;;;0.53;93.85;100287.13;5063146;27;102707;-67
2022/01/24 03:26:01;;;;;;;8.60;7.10;;;;;;;0.28;91.89;100285.56;5092570;27;104103;-70
2022/01/24 03:28:29;;;;;;;10.17;7.67;;;;;;;-0.34;96.89;100288.47;5080863;27;103610;-70
2022/01/24 03:30:57;;;;;;;8.07;7.23;;;;;;;-0.06;97.41;100284.88;5091894;27;103205;-70
2022/01/24 03:33:25;;;;;;;8.67;6.53;;;;;;;0.14;96.82;100287.38;5063296;27;102660;-70
2022/01/24 03:35:53;;;;;;;7.60;6.37;;;;;;;0.30;96.56;100282.09;5080787;27;104082;-71
2022/01/24 03:38:23;;;;;;;9.50;7.93;;;;;;;0.14;94.17;100283.03;5091282;27;103272;-69
2022/01/24 03:40:51;;;;;;;8.90;7.57;;;;;;;0.02;93.84;100287.44;5081388;27;103224;-70
2022/01/24 03:43:20;;;;;;;7.40;6.60;;;;;;;0.15;94.60;100284.75;5062641;27;102707;-67
2022/01/24 03:46:10;;;;;;;7.80;6.00;;;;;;;0.22;94.29;100283.88;5080547;27;103793;-70
2022/01/24 03:48:42;;;;;;;7.47;5.73;;;;;;;0.28;93.71;100278.59;5085903;27;103377;-67
2022/01/24 03:51:10;;;;;;;7.90;6.93;;;;;;;0.25;92.64;100286.47;5070864;27;103769;-70
2022/01/24 03:53:39;;;;;;;8.17;6.60;;;;;;;0.32;93.09;100280.34;5086517;27;103009;-67
2022/01/24 03:56:10;;;;;;;8.40;7.07;;;;;;;0.19;92.73;100283.88;5060499;27;104139;-67
2022/01/24 03:58:39;;;;;;;7.00;5.90;;;;;;;0.27;92.88;100279.50;5079741;27;103204;-68
2022/01/24 04:01:09;;;;;;;8.50;6.47;;;;;;;0.26;92.33;100276.91;5079499;27;102958;-68
2022/01/24 04:03:39;;;;;;;8.37;7.20;;;;;;;0.14;92.22;100275.22;5075032;27;102528;-67
2022/01/24 04:06:07;;;;;;;7.57;6.27;;;;;;;0.15;92.39;100271.75;5067042;27;103828;-71
2022/01/24 04:08:35;;;;;;;7.93;6.10;;;;;;;0.16;92.69;100275.25;5078089;27;103498;-70
2022/01/24 04:11:10;;;;;;;7.17;6.47;;;;;;;0.21;92.80;100278.66;5045406;27;104154;-68
2022/01/24 04:13:41;;;;;;;7.80;6.40;;;;;;;0.13;92.65;100280.44;5048171;27;102588;-68
2022/01/24 04:16:25;;;;;;;8.13;7.10;;;;;;;-0.14;93.66;100281.47;5067079;27;103849;-67
2022/01/24 04:19:00;;;;;;;9.33;7.20;;;;;;;-0.26;94.39;100281.50;5047676;27;103832;-71
2022/01/24 04:21:30;;;;;;;7.67;6.60;;;;;;;-0.13;95.55;100283.16;5075309;27;103226;-70
2022/01/24 04:24:03;;;;;;;6.93;6.03;;;;;;;0.04;95.33;100273.56;5063914;27;102721;-70
2022/01/24 04:26:33;;;;;;;8.40;6.60;;;;;;;0.16;94.76;100276.09;5051379;27;103987;-71
2022/01/24 04:29:04;;;;;;;8.50;7.50;;;;;;;0.04;93.11;100276.16;5062193;27;103659;-70
2022/01/24 04:31:32;;;;;;;8.97;7.17;;;;;;;-0.19;93.22;100276.28;5045977;27;103181;-69
2022/01/24 04:34:01;;;;;;;9.57;7.27;;;;;;;-0.19;94.09;100273.66;5064168;27;102846;-71
2022/01/24 04:36:29;;;;;;;8.00;7.17;;;;;;;-0.05;94.24;100277.06;5077093;27;102635;-67
2022/01/24 04:38:57;;;;;;;8.23;6.50;;;;;;;0.02;93.97;100283.09;5068662;27;103282;-67
2022/01/24 04:41:29;;;;;;;6.83;5.60;;;;;;;0.02;93.45;100279.66;5077729;27;103160;-67
2022/01/24 04:44:06;;;;;;;7.23;5.37;;;;;;;0.11;93.79;100277.88;5065642;27;102742;-70
2022/01/24 04:46:58;;;;;;;6.97;5.63;;;;;;;0.17;93.18;100264.81;5071045;27;102685;-70
2022/01/24 04:52:25;;;;;;;7.73;6.60;;;;;;;-0.06;93.12;100282.28;5066634;27;103194;-71
2022/01/24 04:54:53;;;;;;;8.00;6.20;;;;;;;-0.09;93.10;100277.97;5062924;27;102650;-68
2022/01/24 04:57:23;;;;;;;8.47;7.40;;;;;;;-0.19;93.24;100272.81;5056508;27;103966;-67
2022/01/24 04:59:52;;;;;;;6.47;5.67;;;;;;;-0.05;94.11;100279.66;5059030;27;103232;-68
2022/01/24 05:02:24;;;;;;;8.70;6.67;;;;;;;0.02;93.75;100288.31;5055497;27;103069;-70
2022/01/24 05:04:53;;;;;;;10.87;8.80;;;;;;;-0.42;92.42;100298.03;5050450;27;102717;-67
2022/01/24 05:07:21;;;;;;;8.83;7.23;;;;;;;-0.28;94.84;100301.44;5061540;27;103986;-67
2022/01/24 05:09:55;;;;;;;8.63;7.10;;;;;;;-0.28;94.40;100298.84;5068381;27;104378;-67
2022/01/24 05:12:32;;;;;;;9.07;7.87;;;;;;;-0.21;94.50;100283.22;5046132;27;103229;-69
2022/01/24 05:23:32;;;;;;;7.03;6.13;;;;;;;-0.20;93.31;100297.06;5051842;27;104365;-68
2022/01/24 05:26:07;;;;;;;9.87;8.73;;;;;;;-0.52;92.65;100294.56;5069785;27;102896;-64
2022/01/24 05:28:37;;;;;;;9.53;7.20;;;;;;;-0.35;94.11;100294.53;5064630;27;102718;-65
2022/01/24 05:31:05;;;;;;;8.40;7.10;;;;;;;-0.26;93.84;100291.91;5066146;27;103185;-66
2022/01/24 05:33:35;;;;;;;10.10;8.27;;;;;;;-0.38;93.40;100302.31;5066311;27;103203;-67
2022/01/24 05:36:03;;;;;;;7.87;7.03;;;;;;;-0.43;92.99;100301.47;5062697;27;103028;-65
2022/01/24 05:38:31;;;;;;;10.70;7.90;;;;;;;-0.54;94.40;100303.22;5065054;27;104247;-65
2022/01/24 05:41:02;;;;;;;9.17;8.03;;;;;;;-0.41;94.38;100304.91;5062559;27;103806;-65
2022/01/24 05:43:30;;;;;;;10.33;8.37;;;;;;;-0.39;93.83;100305.81;5065999;27;104383;-65
2022/01/24 05:45:58;;;;;;;10.57;8.40;;;;;;;-0.52;93.41;100314.47;5052974;27;102746;-65
2022/01/24 05:48:26;;;;;;;8.37;6.87;;;;;;;-0.36;94.00;100300.56;5064101;27;103835;-68
2022/01/24 05:50:55;;;;;;;8.57;6.77;;;;;;;-0.26;93.74;100307.47;5065294;27;104266;-65
2022/01/24 05:53:23;;;;;;;9.37;7.40;;;;;;;-0.31;92.71;100304.88;5062123;27;103213;-66
2022/01/24 05:55:53;;;;;;;9.90;7.60;;;;;;;-0.22;93.01;100299.66;5064017;27;102647;-66
2022/01/24 05:58:21;;;;;;;7.93;7.10;;;;;;;-0.19;92.61;100304.84;5069108;27;102890;-66
2022/01/24 06:00:49;;;;;;;11.63;8.43;;;;;;;-0.35;93.04;100302.31;5067110;27;104341;-65
2022/01/24 06:03:18;;;;;;;11.67;8.57;;;;;;;-0.30;93.34;100297.97;5064362;27;103396;-65
2022/01/24 06:05:46;;;;;;;10.60;9.03;;;;;;;-0.37;94.53;100304.06;5065038;27;102605;-67
2022/01/24 06:08:15;;;;;;;14.07;10.33;;;;;;;-0.38;96.47;100291.94;5065570;27;103910;-66
2022/01/24 06:10:44;;;;;;;13.37;9.60;;;;;;;-0.33;96.92;100295.38;5062398;27;103712;-64
2022/01/24 06:13:12;;;;;;;11.63;8.97;;;;;;;-0.30;96.96;100295.34;5066836;27;103212;-64
2022/01/24 06:15:41;;;;;;;13.37;10.80;;;;;;;-0.31;96.93;100309.25;5063867;27;102713;-65
2022/01/24 06:18:09;;;;;;;10.37;8.10;;;;;;;-0.18;96.49;100313.50;5050476;27;102699;-66
2022/01/24 06:20:42;;;;;;;14.80;11.23;;;;;;;-0.22;96.73;100310.03;5044989;27;103854;-64
2022/01/24 06:23:13;;;;;;;10.47;8.30;;;;;;;-0.10;95.84;100309.13;5045316;27;103206;-64
2022/01/24 06:25:42;;;;;;;10.93;7.93;;;;;;;-0.08;96.23;100313.47;5060285;27;102795;-63
2022/01/24 06:28:11;;;;;;;12.63;9.97;;;;;;;-0.08;95.29;100310.88;5064640;27;104331;-64
2022/01/24 06:30:39;;;;;;;11.10;8.60;;;;;;;-0.02;95.35;100310.84;5037810;27;104154;-65
2022/01/24 06:33:09;;;;;;;13.17;9.93;;;;;;;-0.17;94.87;100308.28;5059770;27;103187;-66
2022/01/24 06:35:37;;;;;;;13.83;11.00;;;;;;;-0.05;96.26;100302.19;5058032;27;102669;-66
2022/01/24 06:38:05;;;;;;;11.83;9.33;;;;;;;0.08;96.36;100316.00;5060041;27;102875;-67
2022/01/24 06:40:34;;;;;;;12.07;9.17;;;;;;;0.14;96.05;100314.22;5030542;27;103226;-63
2022/01/24 06:43:03;;;;;;;11.90;10.00;;;;;;;0.16;95.32;100317.69;5063458;27;103173;-64
2022/01/24 06:45:31;;;;;;;10.77;9.07;;;;;;;-0.14;93.90;100315.25;5063198;27;103187;-64
2022/01/24 06:47:59;;;;;;;9.20;7.70;;;;;;;-0.01;94.74;100314.31;5065397;27;102657;-65
2022/01/24 06:50:28;;;;;;;11.30;9.10;;;;;;;-0.01;94.92;100324.69;5064353;27;103866;-63
2022/01/24 06:52:56;;;;;;;9.53;7.53;;;;;;;0.13;94.95;100328.09;5055207;27;103294;-66
2022/01/24 06:55:26;;;;;;;12.63;9.53;;;;;;;0.23;95.13;100324.56;5063144;27;102776;-66
2022/01/24 06:57:54;;;;;;;11.13;8.37;;;;;;;0.32;95.59;100329.72;5056184;27;103881;-64
2022/01/24 07:00:26;;;;;;;13.07;11.23;;;;;;;0.16;95.54;100333.28;5045531;27;103909;-65
2022/01/24 07:02:54;;;;;;;10.80;8.23;;;;;;;0.31;95.91;100330.59;5061704;27;103172;-65
2022/01/24 07:05:23;;;;;;;9.37;8.27;;;;;;;0.42;96.29;100331.41;5061461;27;102629;-63
2022/01/24 07:07:52;;;;;;;9.27;8.03;;;;;;;0.36;95.40;100335.78;5047006;27;103570;-64
2022/01/24 07:10:20;;;;;;;12.27;9.87;;;;;;;0.20;94.82;100337.59;5058288;27;104233;-64
2022/01/24 07:12:57;;;;;;;12.97;10.70;;;;;;;-0.08;97.90;100346.38;5041387;27;103012;-64
2022/01/24 07:15:35;;;;;;;12.77;9.60;;;;;;;0.17;98.23;100339.34;5063998;27;102626;-64
2022/01/24 07:20:49;;;;;;;12.87;10.50;;;;;;;0.12;99.11;100347.16;5059603;27;104771;-67
2022/01/24 07:23:17;;;;;;;12.13;8.83;;;;;;;0.16;98.96;100351.50;5061913;27;103708;-64
2022/01/24 07:25:45;;;;;;;15.20;11.63;;;;;;;0.28;98.72;100355.78;5061726;27;102597;-62
2022/01/24 07:28:14;;;;;;;17.87;12.87;;;;;;;0.22;98.33;100354.06;5042262;27;104307;-67
2022/01/24 07:30:44;;;;;;;14.53;10.40;;;;;;;0.39;98.60;100352.22;5062100;27;103250;-66
2022/01/24 07:33:14;;;;;;;15.23;10.93;;;;;;;0.52;97.71;100359.09;5042685;27;103222;-62
2022/01/24 07:35:42;;;;;;;12.27;9.43;;;;;;;0.53;96.87;100359.97;5043073;27;102739;-67
2022/01/24 07:38:10;;;;;;;13.47;10.63;;;;;;;0.63;96.23;100365.97;5068093;27;104175;-67
2022/01/24 07:40:41;;;;;;;14.47;10.90;;;;;;;0.38;97.55;100360.03;5047365;27;104660;-64
2022/01/24 07:43:12;;;;;;;14.57;11.57;;;;;;;0.51;97.21;100367.75;5041634;27;103173;-66
2022/01/24 07:45:42;;;;;;;13.57;10.87;;;;;;;0.54;97.51;100367.75;5059437;27;104687;-67
2022/01/24 07:48:12;;;;;;;14.17;10.50;;;;;;;0.47;97.79;100371.28;5049690;27;103790;-67
2022/01/24 07:50:42;;;;;;;11.50;8.87;;;;;;;0.68;97.88;100380.66;5047675;27;104309;-66
2022/01/24 07:53:12;;;;;;;14.77;11.23;;;;;;;0.54;96.93;100380.75;5066264;27;103197;-66
2022/01/24 07:55:57;;;;;;;13.90;11.70;;;;;;;0.19;99.97;100389.59;5065929;27;102592;-67
2022/01/24 07:58:26;;;;;;;13.27;10.80;;;;;;;0.41;100.00;100386.91;5048944;27;104180;-67
2022/01/24 08:00:54;;;;;;;14.97;11.00;;;;;;;0.47;98.81;100389.47;5066028;27;103705;-64
2022/01/24 08:03:23;;;;;;;15.83;11.57;;;;;;;0.47;99.23;100389.47;5048437;27;103221;-67
2022/01/24 08:05:51;;;;;;;16.57;11.30;;;;;;;0.46;98.86;100392.94;5055869;27;102706;-65
2022/01/24 08:08:19;;;;;;;15.10;12.03;;;;;;;0.55;99.39;100390.28;5070892;27;103865;-64
2022/01/24 08:10:47;;;;;;;13.43;10.03;;;;;;;0.84;99.47;100397.06;5046589;27;104242;-67
2022/01/24 08:13:15;;;;;;;13.43;10.33;;;;;;;0.99;98.12;100391.72;5065984;27;103218;-64
2022/01/24 08:15:43;;;;;;;13.27;10.97;;;;;;;0.96;97.27;100394.34;5064335;27;104098;-64
2022/01/24 08:18:11;;;;;;;12.97;10.30;;;;;;;0.94;97.96;100393.50;5066461;27;102705;-67
2022/01/24 08:20:41;;;;;;;13.17;10.40;;;;;;;0.58;99.71;100398.09;5055535;27;103597;-67
2022/01/24 08:23:10;;;;;;;13.53;10.53;;;;;;;0.44;100.00;100386.88;5049303;27;103385;-64
2022/01/24 08:25:38;;;;;;;14.43;11.60;;;;;;;0.65;100.00;100392.84;5065416;27;102714;-64
2022/01/24 08:28:09;;;;;;;11.00;8.77;;;;;;;0.92;100.00;100382.25;5052955;27;102734;-67
2022/01/24 08:30:37;;;;;;;12.03;10.23;;;;;;;1.05;100.00;100373.47;5069035;27;104125;-65
2022/01/24 08:33:06;;;;;;;11.03;9.50;;;;;;;1.29;99.64;100369.81;5065081;27;103169;-64
2022/01/24 08:35:34;;;;;;;12.23;9.67;;;;;;;1.52;98.81;100371.31;5047323;27;103127;-64
2022/01/24 08:38:04;;;;;;;13.67;11.20;;;;;;;1.61;97.51;100373.84;5075617;27;103866;-67
2022/01/24 08:40:33;;;;;;;14.20;11.50;;;;;;;1.66;96.77;100377.25;5044904;27;103342;-67
2022/01/24 08:43:05;;;;;;;12.57;9.70;;;;;;;1.81;96.31;100378.84;5050211;27;104253;-67
2022/01/24 08:45:48;;;;;;;14.70;10.40;;;;;;;1.76;95.18;100372.81;5068351;27;102710;-67
2022/01/24 08:48:20;;;;;;;14.87;10.47;;;;;;;1.46;94.71;100380.97;5063296;27;103714;-67
2022/01/24 08:50:50;;;;;;;17.37;10.43;;;;;;;1.41;97.56;100383.59;5065399;27;103816;-67
2022/01/24 08:53:29;;;;;;;12.53;10.40;;;;;;;1.77;98.31;100378.00;5064416;27;103141;-67
2022/01/24 08:55:58;;;;;;;10.63;8.60;;;;;;;1.94;96.63;100370.00;5048815;27;102702;-67
2022/01/24 08:58:26;;;;;;;12.37;8.90;;;;;;;2.03;96.41;100376.84;5039195;27;103591;-67
2022/01/24 09:00:55;;;;;;;12.23;9.37;;;;;;;2.08;94.89;100375.06;5065089;27;103257;-67
2022/01/24 09:03:29;;;;;;;13.20;9.60;;;;;;;2.08;94.63;100380.28;5066326;27;103240;-64
2022/01/24 09:05:59;;;;;;;13.47;9.57;;;;;;;2.10;95.63;100378.53;5060417;27;102966;-67
2022/01/24 09:08:30;;;;;;;12.77;8.97;;;;;;;2.52;96.29;100383.22;5052418;27;103765;-64
2022/01/24 09:10:58;;;;;;;13.43;10.10;;;;;;;2.45;93.17;100373.72;5064906;27;103889;-64
2022/01/24 09:13:26;;;;;;;14.30;10.93;;;;;;;1.93;95.23;100375.25;5064783;27;103242;-65
2022/01/24 09:15:56;;;;;;;13.90;11.27;;;;;;;2.18;95.81;100372.34;5065290;27;102613;-62
2022/01/24 09:18:24;;;;;;;10.83;9.73;;;;;;;3.48;95.21;100380.81;5046126;27;103612;-62
2022/01/24 09:20:52;;;;;;;14.10;11.40;;;;;;;3.52;89.46;100376.41;5065356;27;102974;-62
2022/01/24 09:23:23;;;;;;;13.37;11.43;;;;;;;3.43;88.91;100380.06;5068287;27;103184;-63
2022/01/24 09:25:56;;;;;;;12.10;9.00;;;;;;;3.60;90.81;100378.88;5063830;27;103076;-67
2022/01/24 09:28:24;;;;;;;13.03;10.80;;;;;;;3.28;90.83;100382.06;5042359;27;104222;-67
2022/01/24 09:30:53;;;;;;;12.17;10.30;;;;;;;3.48;89.45;100380.81;5057826;27;103751;-67
2022/01/24 09:33:21;;;;;;;11.50;10.23;;;;;;;3.93;86.58;100373.91;5072589;27;103783;-64
2022/01/24 09:35:52;;;;;;;12.97;10.60;;;;;;;4.28;85.79;100370.59;5070568;27;102670;-62
2022/01/24 09:38:24;;;;;;;12.30;9.50;;;;;;;4.64;84.93;100369.81;5076682;27;102659;-62
2022/01/24 09:40:53;;;;;;;10.17;9.07;;;;;;;3.74;86.29;100361.19;5063915;27;104105;-62
2022/01/24 09:43:23;;;;;;;9.07;7.87;;;;;;;4.47;85.38;100365.81;5048711;27;104179;-62
2022/01/24 09:45:51;;;;;;;10.63;9.53;;;;;;;4.23;84.40;100361.13;5046207;27;102791;-67
2022/01/24 09:48:20;;;;;;;9.30;8.40;;;;;;;4.81;83.18;100361.56;5048084;27;104189;-65
2022/01/24 09:50:52;;;;;;;8.70;7.83;;;;;;;4.31;84.10;100370.53;5063537;27;104373;-65
2022/01/24 09:53:21;;;;;;;10.07;8.80;;;;;;;4.56;82.86;100376.09;5044832;27;104206;-65
2022/01/24 09:55:50;;;;;;;10.07;9.00;;;;;;;4.18;84.09;100373.44;5062015;27;102671;-62
2022/01/24 09:58:19;;;;;;;12.00;9.33;;;;;;;4.63;83.39;100367.25;5044637;27;102954;-67
2022/01/24 10:00:48;;;;;;;10.07;8.93;;;;;;;4.82;84.82;100370.28;5045712;27;104217;-67
2022/01/24 10:03:16;;;;;;;13.20;9.00;;;;;;;4.79;82.27;100363.38;5060239;27;103329;-65
2022/01/24 10:06:03;;;;;;;8.30;7.20;;;;;;;4.78;83.52;100372.13;5045342;27;102782;-63
2022/01/24 10:08:32;;;;;;;17.87;9.73;;;;;;;5.16;80.01;100371.25;5060491;27;102828;-65
2022/01/24 10:11:02;;;;;;;9.80;8.07;;;;;;;5.23;79.88;100367.56;5044567;27;103231;-65
2022/01/24 10:16:29;;;;;;;8.47;7.57;;;;;;;4.72;79.79;100361.78;5055362;27;102777;-67
2022/01/24 10:19:03;;;;;;;8.97;8.07;;;;;;;5.28;79.16;100364.84;5065164;27;103358;-64
2022/01/24 10:21:53;;;;;;;8.07;7.23;;;;;;;5.25;77.67;100358.75;5045881;27;104141;-65
2022/01/24 10:24:32;;;;;;;7.63;6.83;;;;;;;5.76;76.96;100363.56;5032714;27;104232;-65
2022/01/24 10:27:13;;;;;;;7.23;6.30;;;;;;;6.03;76.28;100355.00;5065122;27;102658;-62
2022/01/24 10:29:47;;;;;;;7.30;6.70;;;;;;;5.96;75.05;100350.81;5064662;27;103126;-64
2022/01/24 10:32:38;;;;;;;7.57;6.13;;;;;;;6.09;74.18;100349.53;5062919;27;103451;-62
2022/01/24 10:35:28;;;;;;;5.87;5.33;;;;;;;6.23;72.62;100350.00;5063838;27;103194;-62
2022/01/24 10:38:23;;;;;;;5.33;4.83;;;;;;;6.41;73.85;100343.38;5066515;27;103291;-62
2022/01/24 10:40:56;;;;;;;21.73;6.90;;;;;;;5.92;72.12;100335.19;5062166;27;102918;-63
2022/01/24 10:43:25;;;;;;;6.07;5.40;;;;;;;6.41;72.31;100336.38;5064079;27;104001;-62
2022/01/24 10:45:56;;;;;;;6.10;5.47;;;;;;;6.72;71.55;100336.28;5063003;27;103189;-67
2022/01/24 10:48:28;;;;;;;6.63;6.03;;;;;;;6.45;72.13;100328.41;5053919;27;102766;-62
2022/01/24 10:51:08;;;;;;;6.60;5.30;;;;;;;6.73;70.90;100324.03;5060420;27;103089;-62
2022/01/24 10:53:40;;;;;;;5.47;4.97;;;;;;;6.92;70.98;100322.53;5059731;27;103315;-65
2022/01/24 10:56:29;;;;;;;6.87;6.27;;;;;;;6.92;70.44;100323.41;5054383;27;103395;-65
2022/01/24 10:59:02;;;;;;;6.57;6.00;;;;;;;6.97;70.22;100315.34;5053688;27;102683;-65
2022/01/24 11:01:34;;;;;;;8.10;5.77;;;;;;;6.10;71.41;100316.28;5049561;27;104229;-65
2022/01/24 11:04:06;;;;;;;6.30;5.57;;;;;;;6.57;72.55;100314.91;5048658;27;104063;-64
2022/01/24 11:06:37;;;;;;;6.77;5.80;;;;;;;6.70;69.91;100310.97;5021538;27;103261;-65
2022/01/24 11:09:12;;;;;;;6.30;5.70;;;;;;;6.11;71.60;100308.41;5054575;27;103045;-67
2022/01/24 11:11:41;;;;;;;6.03;5.30;;;;;;;6.70;71.44;100303.09;5040489;27;103706;-65
2022/01/24 11:14:13;;;;;;;6.00;5.40;;;;;;;6.71;69.72;100303.03;5030484;27;103310;-68
2022/01/24 11:16:41;;;;;;;8.10;5.83;;;;;;;6.10;71.19;100306.66;5039796;27;103350;-65
2022/01/24 11:19:17;;;;;;;6.13;5.63;;;;;;;6.09;72.05;100307.56;5015911;27;103131;-63
2022/01/24 11:21:45;;;;;;;5.83;5.33;;;;;;;6.63;69.18;100301.56;4987216;28;103649;-64
2022/01/24 11:24:19;;;;;;;6.33;5.83;;;;;;;7.14;69.05;100306.91;4993994;28;104198;-65
2022/01/24 11:26:48;;;;;;;5.60;5.10;;;;;;;7.06;67.59;100307.19;4998255;28;103197;-65
2022/01/24 11:29:18;;;;;;;5.30;4.80;;;;;;;7.43;67.40;100293.66;4999401;28;102996;-65
2022/01/24 11:31:52;;;;;;;5.10;4.63;;;;;;;7.97;66.08;100296.09;4977669;28;103883;-64
2022/01/24 11:34:31;;;;;;;6.30;4.67;;;;;;;7.21;68.11;100297.94;4995507;28;103997;-64
2022/01/24 11:37:04;;;;;;;5.27;4.47;;;;;;;7.52;65.18;100293.34;4996499;28;103239;-65
2022/01/24 11:39:32;;;;;;;4.77;4.20;;;;;;;7.98;66.35;100287.28;4995705;28;103033;-65
2022/01/24 11:42:02;;;;;;;5.90;4.30;;;;;;;7.46;67.00;100299.69;4971864;27;103021;-68
2022/01/24 11:44:45;;;;;;;4.73;3.80;;;;;;;7.22;65.68;100289.97;4993309;28;103285;-67
2022/01/24 11:47:21;;;;;;;4.63;4.10;;;;;;;8.12;64.59;100287.63;5011970;27;103251;-65
2022/01/24 11:49:54;;;;;;;5.03;4.03;;;;;;;8.42;64.07;100283.03;4996058;28;102630;-67
2022/01/24 11:52:31;;;;;;;6.00;4.37;;;;;;;8.51;63.64;100288.78;4994448;28;102819;-68
2022/01/24 11:55:15;;;;;;;4.30;3.90;;;;;;;8.99;62.34;100290.38;4996207;28;103241;-65
2022/01/24 11:57:47;;;;;;;3.43;3.13;;;;;;;9.38;61.97;100277.28;4997574;28;103228;-65
2022/01/24 12:00:22;;;;;;;4.53;4.00;;;;;;;8.01;62.37;100276.63;4995644;28;103200;-64
2022/01/24 12:02:55;;;;;;;3.90;3.60;;;;;;;8.04;63.64;100277.38;4996301;28;104174;-65
2022/01/24 12:05:28;;;;;;;4.00;3.50;;;;;;;8.85;62.91;100271.63;4998639;27;103247;-67
2022/01/24 12:07:59;;;;;;;3.60;3.30;;;;;;;7.75;63.25;100264.44;5002327;28;104229;-68
2022/01/24 12:10:48;;;;;;;3.70;3.40;;;;;;;8.65;63.80;100265.38;4994213;28;102694;-67
2022/01/24 12:13:19;;;;;;;4.50;3.60;;;;;;;8.40;61.21;100263.75;5003058;28;102928;-68
2022/01/24 12:16:05;;;;;;;4.97;3.90;;;;;;;7.41;63.28;100269.19;5002584;28;103308;-68
2022/01/24 12:19:07;;;;;;;4.17;3.20;;;;;;;8.99;61.10;100258.72;4999006;28;103296;-68
2022/01/24 12:21:38;;;;;;;3.50;3.20;;;;;;;9.22;62.29;100256.88;5001532;28;102597;-68
2022/01/24 12:24:10;;;;;;;5.13;3.50;;;;;;;9.44;59.68;100248.00;5016757;27;103741;-68
2022/01/24 12:26:44;;;;;;;3.07;2.77;;;;;;;9.91;60.06;100252.91;4999223;28;103562;-68
2022/01/24 12:29:17;;;;;;;3.33;3.03;;;;;;;10.03;58.78;100255.91;5000331;28;103376;-65
2022/01/24 12:31:48;;;;;;;3.93;2.87;;;;;;;8.81;61.61;100243.69;5000515;28;102853;-66
2022/01/24 12:34:28;;;;;;;3.70;3.40;;;;;;;9.55;61.06;100249.25;4995926;28;102626;-66
2022/01/24 12:37:10;;;;;;;4.10;3.45;;;;;;;9.81;59.47;100250.75;4996155;28;103270;-66
2022/01/24 12:39:47;;;;;;;3.93;3.17;;;;;;;9.99;59.00;100236.75;4994612;28;103394;-68
2022/01/24 12:42:20;;;;;;;4.43;3.57;;;;;;;8.24;62.06;100247.66;4992467;28;102678;-68